Naniwa Maru No.21 — JG5648 — position and weather

sailwx.info

Track history (hours):
 
Tides and Currents Weather Stations Pressure Air Temp Water Temp Dewpoint Dewpoint Depression Visibility Wind Speed Wind Dir Waves Ship Positions

Naniwa Maru No.21

Last reported at 2015-Mar-30 04:33 UTC. Time now 2015-Mar-31 16:56 UTC.
Position N 33°53' E 130°27'.

Length 71 m; draft 5.2 m.

Type: Tanker. MMSI: 431301595.

Date/timePositionNaut miles runAvg speedWind from/ knotsBaromVisibWave heightAir tempDewpointWater temp
2015-Mar-30 04:33N 33°53' E 130°27'1313.4
2015-Mar-30 03:33N 33°43' E 130°17'8 8.0
2015-Mar-30 02:31N 33°36' E 130°23'0 0.0
2015-Mar-30 01:31N 33°36' E 130°23'0 0.0
2015-Mar-30 00:28N 33°36' E 130°23'0 0.0
2015-Mar-29 23:32N 33°36' E 130°23'1 0.6
2015-Mar-29 22:33N 33°37' E 130°23'2 1.7
2015-Mar-29 21:33N 33°37' E 130°21'0 0.0
2015-Mar-29 20:32N 33°37' E 130°21'0 0.0
2015-Mar-29 19:33N 33°37' E 130°21'0 0.1
2015-Mar-29 18:33N 33°37' E 130°21'6 6.2
2015-Mar-29 17:33N 33°42' E 130°16'1413.3
2015-Mar-29 16:32N 33°54' E 130°22'  
2015-Mar-26 01:29N 34°07' E 135°07'3 1.3
2015-Mar-25 23:33N 34°09' E 135°07'3 3.5
2015-Mar-25 22:33N 34°13' E 135°09'0 0.0
2015-Mar-25 21:32N 34°13' E 135°09'0 0.0
2015-Mar-25 20:29N 34°13' E 135°09'0 0.0
2015-Mar-25 19:32N 34°13' E 135°09'0 0.0
2015-Mar-25 18:32N 34°13' E 135°09'0 0.0
2015-Mar-25 17:29N 34°13' E 135°09'0 0.0
2015-Mar-25 16:32N 34°13' E 135°09'0 0.0
2015-Mar-25 15:32N 34°13' E 135°09'0 0.0
2015-Mar-25 14:32N 34°13' E 135°09'0 0.0
2015-Mar-25 13:32N 34°13' E 135°09'0 0.0
2015-Mar-25 12:32N 34°13' E 135°09'0 0.0
2015-Mar-25 11:32N 34°13' E 135°09'0 0.0
2015-Mar-25 10:32N 34°13' E 135°09'0 0.0
2015-Mar-25 09:32N 34°13' E 135°09'0 0.0
2015-Mar-25 08:32N 34°13' E 135°09'0 0.0
2015-Mar-25 07:32N 34°13' E 135°09'0 0.0
2015-Mar-25 06:32N 34°13' E 135°09'0 0.0
2015-Mar-25 05:33N 34°13' E 135°09'0 0.0
2015-Mar-25 04:32N 34°13' E 135°09'0 0.0
2015-Mar-25 03:32N 34°13' E 135°09'0 0.0
2015-Mar-25 02:32N 34°13' E 135°09'0 0.0
2015-Mar-25 01:32N 34°13' E 135°09'0 0.0
2015-Mar-25 00:32N 34°13' E 135°09'0 0.0
2015-Mar-24 23:33N 34°13' E 135°09'0 0.0
2015-Mar-24 22:32N 34°13' E 135°09'0 0.0
2015-Mar-24 21:32N 34°13' E 135°09'0 0.0
2015-Mar-24 20:32N 34°13' E 135°09'0 0.0
2015-Mar-24 19:32N 34°13' E 135°09'0 0.0
2015-Mar-24 18:32N 34°13' E 135°09'0 0.0
2015-Mar-24 17:32N 34°13' E 135°09'0 0.0
2015-Mar-24 16:32N 34°13' E 135°09'0 0.0
2015-Mar-24 15:32N 34°13' E 135°09'0 0.0
2015-Mar-24 14:32N 34°13' E 135°09'0 0.0
2015-Mar-24 13:32N 34°13' E 135°09'0 0.0
2015-Mar-24 12:32N 34°13' E 135°09'0 0.0
2015-Mar-24 11:32N 34°13' E 135°09'0 0.0
2015-Mar-24 10:32N 34°13' E 135°09'0 0.0
2015-Mar-24 09:32N 34°13' E 135°09'0 0.0
2015-Mar-24 08:32N 34°13' E 135°09'0 0.0
2015-Mar-24 07:32N 34°13' E 135°09'0 0.0
2015-Mar-24 06:32N 34°13' E 135°09'0 0.0
2015-Mar-24 05:33N 34°13' E 135°09'0 0.0
2015-Mar-24 04:33N 34°13' E 135°09'9 8.3
2015-Mar-24 03:31N 34°16' E 134°59'1812.7
2015-Mar-24 02:08N 34°34' E 135°02'4 7.5
2015-Mar-24 01:33N 34°37' E 134°58'  
2015-Mar-21 05:33N 34°08' E 134°59'7 1.1
2015-Mar-20 23:33N 34°09' E 135°06'4 3.6
2015-Mar-20 22:31N 34°13' E 135°09'0 0.0
2015-Mar-20 21:28N 34°13' E 135°09'0 0.0
2015-Mar-20 20:31N 34°13' E 135°09'0 0.0
2015-Mar-20 19:28N 34°13' E 135°09'0 0.0
2015-Mar-20 18:28N 34°13' E 135°09'0 0.0
2015-Mar-20 17:28N 34°13' E 135°09'0 0.0
2015-Mar-20 16:28N 34°13' E 135°09'0 0.0
2015-Mar-20 15:28N 34°13' E 135°09'0 0.0
2015-Mar-20 14:28N 34°13' E 135°09'0 0.0
2015-Mar-20 13:28N 34°13' E 135°09'0 0.0
2015-Mar-20 12:28N 34°13' E 135°09'0 0.0
2015-Mar-20 11:28N 34°13' E 135°09'0 0.0
2015-Mar-20 10:28N 34°13' E 135°09'0 0.0
2015-Mar-20 09:31N 34°13' E 135°09'0 0.0
2015-Mar-20 08:28N 34°13' E 135°09'0 0.0
2015-Mar-20 07:28N 34°13' E 135°09'0 0.0
2015-Mar-20 06:28N 34°13' E 135°09'0 0.0
2015-Mar-20 05:16N 34°13' E 135°09'  
Track history (hours):
 
Tides and Currents Weather Stations Pressure Air Temp Water Temp Dewpoint Dewpoint Depression Visibility Wind Speed Wind Dir Waves Ship Positions

Naniwa Maru No.21

Last reported at 2015-Mar-30 04:33 UTC. Time now 2015-Mar-31 16:56 UTC.
Position N 33°53' E 130°27'.

Length 71 m; draft 5.2 m.

Type: Tanker. MMSI: 431301595.

Date/timePositionNaut miles runAvg speedWind from/ knotsBaromVisibWave heightAir tempDewpointWater temp
2015-Mar-30 04:33N 33°53' E 130°27'1313.4
2015-Mar-30 03:33N 33°43' E 130°17'8 8.0
2015-Mar-30 02:31N 33°36' E 130°23'0 0.0
2015-Mar-30 01:31N 33°36' E 130°23'0 0.0
2015-Mar-30 00:28N 33°36' E 130°23'0 0.0
2015-Mar-29 23:32N 33°36' E 130°23'1 0.6
2015-Mar-29 22:33N 33°37' E 130°23'2 1.7
2015-Mar-29 21:33N 33°37' E 130°21'0 0.0
2015-Mar-29 20:32N 33°37' E 130°21'0 0.0
2015-Mar-29 19:33N 33°37' E 130°21'0 0.1
2015-Mar-29 18:33N 33°37' E 130°21'6 6.2
2015-Mar-29 17:33N 33°42' E 130°16'1413.3
2015-Mar-29 16:32N 33°54' E 130°22'  
2015-Mar-26 01:29N 34°07' E 135°07'3 1.3
2015-Mar-25 23:33N 34°09' E 135°07'3 3.5
2015-Mar-25 22:33N 34°13' E 135°09'0 0.0
2015-Mar-25 21:32N 34°13' E 135°09'0 0.0
2015-Mar-25 20:29N 34°13' E 135°09'0 0.0
2015-Mar-25 19:32N 34°13' E 135°09'0 0.0
2015-Mar-25 18:32N 34°13' E 135°09'0 0.0
2015-Mar-25 17:29N 34°13' E 135°09'0 0.0
2015-Mar-25 16:32N 34°13' E 135°09'0 0.0
2015-Mar-25 15:32N 34°13' E 135°09'0 0.0
2015-Mar-25 14:32N 34°13' E 135°09'0 0.0
2015-Mar-25 13:32N 34°13' E 135°09'0 0.0
2015-Mar-25 12:32N 34°13' E 135°09'0 0.0
2015-Mar-25 11:32N 34°13' E 135°09'0 0.0
2015-Mar-25 10:32N 34°13' E 135°09'0 0.0
2015-Mar-25 09:32N 34°13' E 135°09'0 0.0
2015-Mar-25 08:32N 34°13' E 135°09'0 0.0
2015-Mar-25 07:32N 34°13' E 135°09'0 0.0
2015-Mar-25 06:32N 34°13' E 135°09'0 0.0
2015-Mar-25 05:33N 34°13' E 135°09'0 0.0
2015-Mar-25 04:32N 34°13' E 135°09'0 0.0
2015-Mar-25 03:32N 34°13' E 135°09'0 0.0
2015-Mar-25 02:32N 34°13' E 135°09'0 0.0
2015-Mar-25 01:32N 34°13' E 135°09'0 0.0
2015-Mar-25 00:32N 34°13' E 135°09'0 0.0
2015-Mar-24 23:33N 34°13' E 135°09'0 0.0
2015-Mar-24 22:32N 34°13' E 135°09'0 0.0
2015-Mar-24 21:32N 34°13' E 135°09'0 0.0
2015-Mar-24 20:32N 34°13' E 135°09'0 0.0
2015-Mar-24 19:32N 34°13' E 135°09'0 0.0
2015-Mar-24 18:32N 34°13' E 135°09'0 0.0
2015-Mar-24 17:32N 34°13' E 135°09'0 0.0
2015-Mar-24 16:32N 34°13' E 135°09'0 0.0
2015-Mar-24 15:32N 34°13' E 135°09'0 0.0
2015-Mar-24 14:32N 34°13' E 135°09'0 0.0
2015-Mar-24 13:32N 34°13' E 135°09'0 0.0
2015-Mar-24 12:32N 34°13' E 135°09'0 0.0
2015-Mar-24 11:32N 34°13' E 135°09'0 0.0
2015-Mar-24 10:32N 34°13' E 135°09'0 0.0
2015-Mar-24 09:32N 34°13' E 135°09'0 0.0
2015-Mar-24 08:32N 34°13' E 135°09'0 0.0
2015-Mar-24 07:32N 34°13' E 135°09'0 0.0
2015-Mar-24 06:32N 34°13' E 135°09'0 0.0
2015-Mar-24 05:33N 34°13' E 135°09'0 0.0
2015-Mar-24 04:33N 34°13' E 135°09'9 8.3
2015-Mar-24 03:31N 34°16' E 134°59'1812.7
2015-Mar-24 02:08N 34°34' E 135°02'4 7.5
2015-Mar-24 01:33N 34°37' E 134°58'  
2015-Mar-21 05:33N 34°08' E 134°59'7 1.1
2015-Mar-20 23:33N 34°09' E 135°06'4 3.6
2015-Mar-20 22:31N 34°13' E 135°09'0 0.0
2015-Mar-20 21:28N 34°13' E 135°09'0 0.0
2015-Mar-20 20:31N 34°13' E 135°09'0 0.0
2015-Mar-20 19:28N 34°13' E 135°09'0 0.0
2015-Mar-20 18:28N 34°13' E 135°09'0 0.0
2015-Mar-20 17:28N 34°13' E 135°09'0 0.0
2015-Mar-20 16:28N 34°13' E 135°09'0 0.0
2015-Mar-20 15:28N 34°13' E 135°09'0 0.0
2015-Mar-20 14:28N 34°13' E 135°09'0 0.0
2015-Mar-20 13:28N 34°13' E 135°09'0 0.0
2015-Mar-20 12:28N 34°13' E 135°09'0 0.0
2015-Mar-20 11:28N 34°13' E 135°09'0 0.0
2015-Mar-20 10:28N 34°13' E 135°09'0 0.0
2015-Mar-20 09:31N 34°13' E 135°09'0 0.0
2015-Mar-20 08:28N 34°13' E 135°09'0 0.0
2015-Mar-20 07:28N 34°13' E 135°09'0 0.0
2015-Mar-20 06:28N 34°13' E 135°09'0 0.0
2015-Mar-20 05:16N 34°13' E 135°09'  

Dump ship's entire track history